createdAt,value
2019-05-20T00:01:50.677Z,99453.98
2019-05-20T00:04:21.996Z,99450.11
2019-05-20T00:06:53.101Z,99449.64
2019-05-20T00:09:24.633Z,99448.12
2019-05-20T00:11:55.881Z,99446.47
2019-05-20T00:14:27.152Z,99447.27
2019-05-20T00:16:58.245Z,99450.27
2019-05-20T00:19:29.384Z,99454.89
2019-05-20T00:22:00.634Z,99450.27
2019-05-20T00:24:31.861Z,99449.78
2019-05-20T00:27:03.844Z,99451.45
2019-05-20T00:29:34.802Z,99451.13
2019-05-20T00:32:06.229Z,99452.90
2019-05-20T00:34:37.213Z,99456.02
2019-05-20T00:37:08.289Z,99453.33
2019-05-20T00:39:39.497Z,99451.69
2019-05-20T00:42:10.537Z,99458.76
2019-05-20T00:44:42.163Z,99463.52
2019-05-20T00:47:13.876Z,99460.47
2019-05-20T00:49:45.159Z,99456.17
2019-05-20T00:52:16.617Z,99460.37
2019-05-20T00:54:47.603Z,99464.09
2019-05-20T00:57:18.599Z,99462.52
2019-05-20T00:59:50.110Z,99459.14
2019-05-20T01:02:21.087Z,99465.88
2019-05-20T01:04:52.422Z,99466.17
2019-05-20T01:07:23.441Z,99468.48
2019-05-20T01:09:54.737Z,99465.78
2019-05-20T01:12:25.711Z,99463.05
2019-05-20T01:14:56.730Z,99463.53
2019-05-20T01:17:27.695Z,99466.95
2019-05-20T01:19:59.145Z,99467.84
2019-05-20T01:22:30.140Z,99462.47
2019-05-20T01:25:01.479Z,99458.94
2019-05-20T01:27:32.479Z,99463.93
2019-05-20T01:30:03.597Z,99459.98
2019-05-20T01:32:37.240Z,99460.84
2019-05-20T01:35:08.988Z,99459.87
2019-05-20T01:37:39.998Z,99460.34
2019-05-20T01:40:12.618Z,99459.05
2019-05-20T01:42:43.634Z,99456.54
2019-05-20T01:45:15.085Z,99465.28
2019-05-20T01:47:47.482Z,99460.78
2019-05-20T01:50:18.584Z,99459.28
2019-05-20T01:52:50.154Z,99458.51
2019-05-20T01:55:21.376Z,99454.69
2019-05-20T01:57:52.487Z,99452.48
2019-05-20T02:00:23.582Z,99446.16
2019-05-20T02:02:54.644Z,99453.28
2019-05-20T02:05:25.627Z,99450.19
2019-05-20T02:07:57.670Z,99454.91
2019-05-20T02:10:29.003Z,99455.38
2019-05-20T02:12:59.987Z,99457.61
2019-05-20T02:15:37.472Z,99449.95
2019-05-20T02:18:08.720Z,99452.91
2019-05-20T02:20:39.710Z,99453.20
2019-05-20T02:23:14.819Z,99452.13
2019-05-20T02:25:47.106Z,99451.12
2019-05-20T02:28:18.335Z,99450.64
2019-05-20T02:30:49.567Z,99446.38
2019-05-20T02:35:54.771Z,99431.07
2019-05-20T02:38:26.817Z,99433.44
2019-05-20T02:40:58.466Z,99432.60
2019-05-20T02:43:29.978Z,99431.89
2019-05-20T02:46:02.184Z,99420.27
2019-05-20T02:48:34.279Z,99420.27
2019-05-20T02:51:06.166Z,99435.31
2019-05-20T02:53:37.998Z,99441.02
2019-05-20T02:56:10.008Z,99450.34
2019-05-20T02:58:42.984Z,99447.44
2019-05-20T03:01:14.673Z,99450.48
2019-05-20T03:03:46.887Z,99448.73
2019-05-20T03:06:19.682Z,99447.83
2019-05-20T03:08:51.634Z,99441.02
2019-05-20T03:11:23.241Z,99447.45
2019-05-20T03:13:54.877Z,99450.81
2019-05-20T03:16:27.033Z,99446.27
2019-05-20T03:18:58.855Z,99453.27
2019-05-20T03:21:31.141Z,99451.69
2019-05-20T03:24:03.000Z,99449.03
2019-05-20T03:26:35.096Z,99446.36
2019-05-20T03:29:07.016Z,99450.09
2019-05-20T03:31:38.949Z,99438.63
2019-05-20T03:34:38.725Z,99440.39
2019-05-20T03:36:44.781Z,99442.63
2019-05-20T03:39:16.776Z,99432.97
2019-05-20T03:41:50.197Z,99445.76
2019-05-20T03:44:22.182Z,99441.08
2019-05-20T03:46:54.143Z,99435.63
2019-05-20T03:49:26.520Z,99443.63
2019-05-20T03:51:58.325Z,99437.27
2019-05-20T03:54:30.324Z,99434.39
2019-05-20T03:57:02.125Z,99423.34
2019-05-20T03:59:33.803Z,99427.54
2019-05-20T04:02:05.537Z,99429.41
2019-05-20T04:04:37.566Z,99441.17
2019-05-20T04:07:11.311Z,99431.56
2019-05-20T04:09:43.186Z,99434.50
2019-05-20T04:12:15.089Z,99437.36
2019-05-20T04:14:47.278Z,99439.70
2019-05-20T04:17:19.465Z,99446.75
2019-05-20T04:19:51.376Z,99443.75
2019-05-20T04:22:23.344Z,99445.08
2019-05-20T04:24:55.330Z,99443.20
2019-05-20T04:27:27.310Z,99441.08
2019-05-20T04:29:59.463Z,99441.22
2019-05-20T04:32:31.425Z,99439.70
2019-05-20T04:35:20.552Z,99444.54
2019-05-20T04:37:36.786Z,99448.20
2019-05-20T04:40:08.982Z,99446.17
2019-05-20T04:42:40.780Z,99444.02
2019-05-20T04:45:13.380Z,99443.63
2019-05-20T04:47:45.185Z,99444.64
2019-05-20T04:50:16.765Z,99436.98
2019-05-20T04:52:48.507Z,99440.52
2019-05-20T04:55:20.892Z,99439.44
2019-05-20T04:57:52.983Z,99443.91
2019-05-20T05:00:51.473Z,99444.55
2019-05-20T05:03:23.861Z,99442.88
2019-05-20T05:05:55.872Z,99444.52
2019-05-20T05:08:27.221Z,99443.52
2019-05-20T05:10:58.860Z,99443.16
2019-05-20T05:13:32.075Z,99441.09
2019-05-20T05:16:03.704Z,99433.86
2019-05-20T05:18:35.643Z,99443.52
2019-05-20T05:21:07.363Z,99441.80
2019-05-20T05:23:38.829Z,99442.00
2019-05-20T05:26:11.060Z,99447.09
2019-05-20T05:28:42.717Z,99439.13
2019-05-20T05:31:14.584Z,99457.58
2019-05-20T05:33:46.474Z,99446.39
2019-05-20T05:36:18.433Z,99445.33
2019-05-20T05:38:50.883Z,99443.66
2019-05-20T05:41:22.535Z,99435.39
2019-05-20T05:43:54.729Z,99445.77
2019-05-20T05:46:26.854Z,99454.06
2019-05-20T05:48:59.214Z,99465.13
2019-05-20T05:51:31.414Z,99460.19
2019-05-20T05:54:02.708Z,99463.34
2019-05-20T05:56:34.653Z,99455.23
2019-05-20T05:59:06.187Z,99452.67
2019-05-20T06:01:37.835Z,99468.48
2019-05-20T06:04:09.675Z,99476.92
2019-05-20T06:06:40.918Z,99469.69
2019-05-20T06:09:12.857Z,99463.59
2019-05-20T06:11:44.843Z,99461.11
2019-05-20T06:14:16.719Z,99465.48
2019-05-20T06:16:48.299Z,99467.05
2019-05-20T06:19:20.064Z,99476.32
2019-05-20T06:21:52.600Z,99471.56
2019-05-20T06:24:23.951Z,99475.06
2019-05-20T06:26:55.449Z,99482.25
2019-05-20T06:29:27.503Z,99482.68
2019-05-20T06:31:59.360Z,99482.62
2019-05-20T06:34:30.985Z,99483.75
2019-05-20T06:37:05.299Z,99490.59
2019-05-20T06:39:36.950Z,99483.31
2019-05-20T06:42:08.936Z,99482.47
2019-05-20T06:44:52.188Z,99482.77
2019-05-20T06:47:14.272Z,99478.72
2019-05-20T06:49:46.162Z,99477.02
2019-05-20T06:52:33.241Z,99477.35
2019-05-20T06:54:51.093Z,99475.72
2019-05-20T06:57:24.040Z,99472.93
2019-05-20T06:59:56.522Z,99470.99
2019-05-20T07:02:28.716Z,99461.40
2019-05-20T07:05:00.040Z,99466.16
2019-05-20T07:07:31.830Z,99465.69
2019-05-20T07:10:03.429Z,99468.82
2019-05-20T07:12:41.115Z,99472.88
2019-05-20T07:15:09.641Z,99470.72
2019-05-20T07:17:42.622Z,99478.42
2019-05-20T07:20:15.925Z,99480.76
2019-05-20T07:22:55.686Z,99483.44
2019-05-20T07:25:21.599Z,99487.13
2019-05-20T07:27:53.801Z,99483.64
2019-05-20T07:30:25.395Z,99479.23
2019-05-20T07:32:57.146Z,99479.36
2019-05-20T07:35:31.009Z,99479.05
2019-05-20T07:38:02.367Z,99480.03
2019-05-20T07:40:33.924Z,99478.38
2019-05-20T07:43:05.691Z,99475.56
2019-05-20T07:45:37.800Z,99478.73
2019-05-20T07:48:09.712Z,99477.33
2019-05-20T07:50:40.846Z,99482.13
2019-05-20T07:53:12.947Z,99476.00
2019-05-20T07:55:57.082Z,99470.77
2019-05-20T07:58:33.484Z,99471.61
2019-05-20T08:01:03.300Z,99478.55
2019-05-20T08:03:38.429Z,99484.52
2019-05-20T08:06:08.649Z,99481.10
2019-05-20T08:08:39.907Z,99482.63
2019-05-20T08:11:11.490Z,99482.39
2019-05-20T08:13:43.586Z,99482.84
2019-05-20T08:16:14.727Z,99483.60
2019-05-20T08:18:46.416Z,99480.98
2019-05-20T08:21:18.121Z,99479.29
2019-05-20T08:23:50.378Z,99479.25
2019-05-20T08:26:22.377Z,99476.92
2019-05-20T08:28:54.985Z,99486.41
2019-05-20T08:31:27.084Z,99486.67
2019-05-20T08:33:58.290Z,99475.46
2019-05-20T08:36:30.252Z,99486.02
2019-05-20T08:39:01.877Z,99483.99
2019-05-20T08:41:35.277Z,99481.82
2019-05-20T08:44:07.871Z,99483.67
2019-05-20T08:46:39.157Z,99482.55
2019-05-20T08:49:11.800Z,99485.65
2019-05-20T08:51:43.689Z,99486.89
2019-05-20T08:54:15.676Z,99480.53
2019-05-20T08:56:49.260Z,99483.42
2019-05-20T08:59:20.607Z,99479.81
2019-05-20T09:01:52.430Z,99479.50
2019-05-20T09:04:24.291Z,99480.23
2019-05-20T09:06:56.091Z,99478.58
2019-05-20T09:09:27.923Z,99476.88
2019-05-20T09:12:01.611Z,99482.64
2019-05-20T09:14:34.035Z,99477.64
2019-05-20T09:17:06.267Z,99479.06
2019-05-20T09:19:37.904Z,99483.90
2019-05-20T09:22:11.014Z,99484.19
2019-05-20T09:24:43.120Z,99484.19
2019-05-20T09:27:14.555Z,99479.05
2019-05-20T09:29:46.414Z,99474.47
2019-05-20T09:32:18.275Z,99465.68
2019-05-20T09:34:50.035Z,99469.72
2019-05-20T09:37:21.475Z,99463.12
2019-05-20T09:39:53.029Z,99455.48
2019-05-20T09:42:26.262Z,99453.83
2019-05-20T09:45:02.956Z,99452.58
2019-05-20T09:47:31.598Z,99457.39
2019-05-20T09:50:03.676Z,99452.19
2019-05-20T09:52:35.776Z,99451.14
2019-05-20T09:55:07.226Z,99445.03
2019-05-20T09:57:38.809Z,99454.11
2019-05-20T10:00:11.320Z,99451.54
2019-05-20T10:02:43.212Z,99444.53
2019-05-20T10:05:14.818Z,99444.83
2019-05-20T10:07:46.416Z,99450.52
2019-05-20T10:10:18.223Z,99450.91
2019-05-20T10:12:50.024Z,99450.67
2019-05-20T10:15:21.379Z,99449.10
2019-05-20T10:17:53.306Z,99451.10
2019-05-20T10:20:24.947Z,99451.10
2019-05-20T10:22:56.252Z,99452.02
2019-05-20T10:25:27.813Z,99451.89
2019-05-20T10:28:00.183Z,99453.47
2019-05-20T10:30:31.440Z,99450.16
2019-05-20T10:33:03.300Z,99448.98
2019-05-20T10:35:35.032Z,99450.34
2019-05-20T10:38:06.738Z,99450.29
2019-05-20T10:40:38.812Z,99443.14
2019-05-20T10:43:10.410Z,99449.15
2019-05-20T10:45:42.224Z,99447.02
2019-05-20T10:48:14.208Z,99442.22
2019-05-20T10:50:46.505Z,99447.07
2019-05-20T10:53:17.753Z,99453.75
2019-05-20T10:55:50.057Z,99445.88
2019-05-20T10:58:22.186Z,99443.02
2019-05-20T11:01:02.215Z,99446.01
2019-05-20T11:03:27.489Z,99450.58
2019-05-20T11:05:59.397Z,99447.43
2019-05-20T11:08:31.620Z,99443.39
2019-05-20T11:11:02.929Z,99442.13
2019-05-20T11:13:34.304Z,99432.04
2019-05-20T11:16:05.729Z,99432.04
2019-05-20T11:18:37.581Z,99436.45
2019-05-20T11:21:09.752Z,99440.38
2019-05-20T11:23:41.920Z,99424.64
2019-05-20T11:26:13.249Z,99427.35
2019-05-20T11:28:45.179Z,99433.42
2019-05-20T11:31:17.273Z,99425.31
2019-05-20T11:33:49.132Z,99413.66
2019-05-20T11:36:21.298Z,99409.86
2019-05-20T11:38:53.576Z,99418.83
2019-05-20T11:41:51.169Z,99423.23
2019-05-20T11:43:58.833Z,99420.14
2019-05-20T11:46:31.097Z,99415.12
2019-05-20T11:49:02.135Z,99414.84
2019-05-20T11:51:34.055Z,99417.81
2019-05-20T11:54:06.061Z,99418.59
2019-05-20T11:56:37.703Z,99405.33
2019-05-20T11:59:09.389Z,99397.80
2019-05-20T12:01:41.347Z,99394.84
2019-05-20T12:04:13.467Z,99390.84
2019-05-20T12:06:45.258Z,99387.92
2019-05-20T12:09:17.030Z,99381.53
2019-05-20T12:11:48.747Z,99389.77
2019-05-20T12:14:20.323Z,99384.66
2019-05-20T12:16:52.844Z,99382.06
2019-05-20T12:19:24.631Z,99375.91
2019-05-20T12:21:56.454Z,99376.70
2019-05-20T12:24:29.011Z,99371.73
2019-05-20T12:27:01.052Z,99360.67
2019-05-20T12:29:33.140Z,99364.33
2019-05-20T12:32:06.130Z,99351.69
2019-05-20T12:34:37.976Z,99343.28
2019-05-20T12:37:09.334Z,99342.44
2019-05-20T12:39:41.507Z,99338.89
2019-05-20T12:42:13.679Z,99331.72
2019-05-20T12:44:45.310Z,99334.22
2019-05-20T12:47:16.897Z,99335.56
2019-05-20T12:49:48.708Z,99339.11
2019-05-20T12:52:20.567Z,99328.20
2019-05-20T12:55:06.665Z,99318.14
2019-05-20T12:57:25.511Z,99325.57
2019-05-20T12:59:57.216Z,99318.50
2019-05-20T13:02:30.012Z,99309.22
2019-05-20T13:05:02.238Z,99319.16
2019-05-20T13:07:33.801Z,99315.77
2019-05-20T13:10:26.003Z,99319.18
2019-05-20T13:12:39.797Z,99315.33
2019-05-20T13:15:12.882Z,99313.98
2019-05-20T13:17:45.467Z,99303.05
2019-05-20T13:20:17.727Z,99313.05
2019-05-20T13:22:49.547Z,99304.89
2019-05-20T13:25:21.627Z,99319.06
2019-05-20T13:27:53.264Z,99304.41
2019-05-20T13:30:25.571Z,99301.52
2019-05-20T13:32:57.083Z,99296.47
2019-05-20T13:35:28.629Z,99292.30
2019-05-20T13:38:00.370Z,99299.52
2019-05-20T13:40:45.673Z,99296.22
2019-05-20T13:43:05.520Z,99286.65
2019-05-20T13:45:37.130Z,99298.37
2019-05-20T13:48:09.065Z,99304.27
2019-05-20T13:50:41.024Z,99302.14
2019-05-20T13:53:13.181Z,99307.84
2019-05-20T13:55:44.946Z,99299.09
2019-05-20T13:58:17.221Z,99292.23
2019-05-20T14:00:48.867Z,99286.09
2019-05-20T14:03:20.844Z,99278.92
2019-05-20T14:05:54.024Z,99274.67
2019-05-20T14:08:25.545Z,99284.42
2019-05-20T14:11:04.158Z,99289.25
2019-05-20T14:13:31.805Z,99273.55
2019-05-20T14:16:03.413Z,99273.08
2019-05-20T14:18:35.475Z,99264.73
2019-05-20T14:21:07.853Z,99260.37
2019-05-20T14:23:39.534Z,99251.72
2019-05-20T14:26:12.034Z,99250.26
2019-05-20T14:28:43.647Z,99241.69
2019-05-20T14:31:19.595Z,99236.67
2019-05-20T14:33:51.856Z,99228.91
2019-05-20T14:36:38.594Z,99220.77
2019-05-20T14:38:56.501Z,99220.12
2019-05-20T14:41:28.153Z,99227.23
2019-05-20T14:43:59.910Z,99218.83
2019-05-20T14:46:33.014Z,99208.02
2019-05-20T14:49:04.576Z,99201.95
2019-05-20T14:51:36.675Z,99200.45
2019-05-20T14:54:08.581Z,99202.77
2019-05-20T14:56:40.470Z,99200.03
2019-05-20T14:59:12.390Z,99202.71
2019-05-20T15:01:43.978Z,99213.91
2019-05-20T15:04:15.840Z,99213.97
2019-05-20T15:06:47.647Z,99206.61
2019-05-20T15:09:18.698Z,99211.28
2019-05-20T15:11:50.774Z,99219.90
2019-05-20T15:14:22.105Z,99218.75
2019-05-20T15:16:54.140Z,99217.14
2019-05-20T15:19:25.325Z,99219.42
2019-05-20T15:21:57.004Z,99221.63
2019-05-20T15:24:28.736Z,99228.34
2019-05-20T15:27:01.519Z,99234.71
2019-05-20T15:29:33.570Z,99244.48
2019-05-20T15:32:06.421Z,99246.02
2019-05-20T15:34:38.246Z,99240.37
2019-05-20T15:37:11.411Z,99230.51
2019-05-20T15:39:43.398Z,99230.11
2019-05-20T15:42:14.670Z,99232.55
2019-05-20T15:44:46.730Z,99237.30
2019-05-20T15:47:19.898Z,99235.95
2019-05-20T15:49:51.773Z,99251.91
2019-05-20T15:52:23.946Z,99254.30
2019-05-20T15:54:55.393Z,99255.11
2019-05-20T15:57:27.618Z,99255.11
2019-05-20T15:59:59.564Z,99253.02
2019-05-20T16:02:32.030Z,99260.78
2019-05-20T16:05:03.999Z,99263.27
2019-05-20T16:07:35.975Z,99275.63
2019-05-20T16:10:07.630Z,99299.12
2019-05-20T16:12:39.673Z,99336.73
2019-05-20T16:15:11.581Z,99344.16
2019-05-20T16:17:47.700Z,99354.95
2019-05-20T16:20:17.140Z,99346.59
2019-05-20T16:22:49.243Z,99347.63
2019-05-20T16:25:21.680Z,99351.53
2019-05-20T16:27:53.026Z,99350.50
2019-05-20T16:30:24.989Z,99346.97
2019-05-20T16:32:56.591Z,99343.13
2019-05-20T16:35:28.202Z,99340.63
2019-05-20T16:38:00.147Z,99340.13
2019-05-20T16:40:32.220Z,99333.61
2019-05-20T16:43:04.900Z,99335.64
2019-05-20T16:45:36.823Z,99338.11
2019-05-20T16:48:08.291Z,99352.18
2019-05-20T16:50:39.793Z,99358.85
2019-05-20T16:53:11.218Z,99373.08
2019-05-20T16:55:42.871Z,99356.47
2019-05-20T16:58:15.639Z,99333.25
2019-05-20T17:00:48.006Z,99339.80
2019-05-20T17:03:20.310Z,99337.15
2019-05-20T17:05:52.367Z,99323.09
2019-05-20T17:08:24.456Z,99320.73
2019-05-20T17:10:56.282Z,99318.90
2019-05-20T17:13:28.254Z,99321.95
2019-05-20T17:16:00.122Z,99321.09
2019-05-20T17:18:31.791Z,99315.73
2019-05-20T17:21:03.969Z,99303.54
2019-05-20T17:23:35.781Z,99306.71
2019-05-20T17:26:07.162Z,99309.85
2019-05-20T17:28:39.522Z,99306.29
2019-05-20T17:31:12.791Z,99302.43
2019-05-20T17:33:44.269Z,99303.66
2019-05-20T17:36:16.027Z,99296.16
2019-05-20T17:38:48.123Z,99285.28
2019-05-20T17:41:21.568Z,99278.28
2019-05-20T17:43:54.207Z,99287.95
2019-05-20T17:46:27.042Z,99298.46
2019-05-20T17:48:59.718Z,99307.69
2019-05-20T17:51:31.801Z,99313.03
2019-05-20T17:54:03.800Z,99323.06
2019-05-20T17:56:36.194Z,99327.91
2019-05-20T17:59:08.176Z,99328.77
2019-05-20T18:01:39.922Z,99339.78
2019-05-20T18:04:11.523Z,99353.63
2019-05-20T18:06:44.835Z,99383.64
2019-05-20T18:09:16.770Z,99390.59
2019-05-20T18:11:48.120Z,99381.22
2019-05-20T18:14:21.142Z,99382.66
2019-05-20T18:16:52.972Z,99388.28
2019-05-20T18:19:24.876Z,99386.57
2019-05-20T18:21:57.057Z,99395.28
2019-05-20T18:24:28.983Z,99382.42
2019-05-20T18:27:01.918Z,99365.17
2019-05-20T18:29:33.771Z,99370.14
2019-05-20T18:32:05.619Z,99368.42
2019-05-20T18:34:37.229Z,99381.38
2019-05-20T18:37:08.543Z,99388.77
2019-05-20T18:39:39.870Z,99348.09
2019-05-20T18:42:13.828Z,99335.89
2019-05-20T18:44:46.271Z,99337.02
2019-05-20T18:47:18.115Z,99342.22
2019-05-20T18:49:49.826Z,99347.45
2019-05-20T18:52:21.832Z,99350.66
2019-05-20T18:54:54.039Z,99349.25
2019-05-20T18:57:26.061Z,99342.98
2019-05-20T18:59:57.712Z,99335.53
2019-05-20T19:02:29.722Z,99327.53
2019-05-20T19:05:03.675Z,99315.33
2019-05-20T19:07:36.045Z,99321.07
2019-05-20T19:10:08.119Z,99327.24
2019-05-20T19:12:40.519Z,99337.67
2019-05-20T19:15:12.763Z,99339.88
2019-05-20T19:17:45.148Z,99340.12
2019-05-20T19:20:17.100Z,99348.42
2019-05-20T19:22:49.090Z,99356.14
2019-05-20T19:25:20.329Z,99353.11
2019-05-20T19:27:52.078Z,99358.08
2019-05-20T19:30:24.010Z,99353.92
2019-05-20T19:32:57.724Z,99352.89
2019-05-20T19:35:29.355Z,99359.00
2019-05-20T19:38:00.997Z,99359.36
2019-05-20T19:40:32.692Z,99366.96
2019-05-20T19:43:04.647Z,99398.91
2019-05-20T19:45:36.394Z,99370.34
2019-05-20T19:48:08.013Z,99374.70
2019-05-20T19:50:39.716Z,99365.70
2019-05-20T19:53:11.446Z,99360.30
2019-05-20T19:55:43.301Z,99350.15
2019-05-20T19:58:15.376Z,99350.30
2019-05-20T20:00:48.746Z,99346.97
2019-05-20T20:03:20.642Z,99349.56
2019-05-20T20:05:52.944Z,99344.63
2019-05-20T20:08:25.209Z,99340.27
2019-05-20T20:10:58.917Z,99332.25
2019-05-20T20:13:34.043Z,99331.89
2019-05-20T20:16:04.585Z,99339.91
2019-05-20T20:18:37.754Z,99326.17
2019-05-20T20:21:11.028Z,99325.52
2019-05-20T20:23:43.344Z,99320.34
2019-05-20T20:26:16.635Z,99328.23
2019-05-20T20:28:48.632Z,99326.84
2019-05-20T20:31:20.973Z,99328.16
2019-05-20T20:33:53.028Z,99328.54
2019-05-20T20:36:24.892Z,99332.75
2019-05-20T20:38:57.448Z,99333.73
2019-05-20T20:41:29.719Z,99323.05
2019-05-20T20:44:01.682Z,99327.20
2019-05-20T20:46:33.856Z,99331.06
2019-05-20T20:49:05.483Z,99334.42
2019-05-20T20:51:37.212Z,99336.52
2019-05-20T20:54:08.980Z,99340.59
2019-05-20T20:56:40.582Z,99330.17
2019-05-20T20:59:12.382Z,99322.98
2019-05-20T21:01:44.212Z,99329.73
2019-05-20T21:04:16.576Z,99317.71
2019-05-20T21:06:48.654Z,99322.01
2019-05-20T21:09:20.621Z,99312.81
2019-05-20T21:11:52.508Z,99309.45
2019-05-20T21:14:24.912Z,99318.98
2019-05-20T21:16:57.112Z,99322.87
2019-05-20T21:19:29.314Z,99317.35
2019-05-20T21:22:01.259Z,99307.64
2019-05-20T21:24:33.253Z,99301.95
2019-05-20T21:27:05.346Z,99306.93
2019-05-20T21:29:37.251Z,99307.44
2019-05-20T21:32:09.183Z,99304.29
2019-05-20T21:34:41.250Z,99303.28
2019-05-20T21:37:13.789Z,99300.40
2019-05-20T21:39:45.678Z,99300.94
2019-05-20T21:42:17.223Z,99305.63
2019-05-20T21:44:48.934Z,99309.98
2019-05-20T21:47:21.252Z,99304.83
2019-05-20T21:49:53.038Z,99314.64
2019-05-20T21:52:25.402Z,99302.23
2019-05-20T21:54:57.759Z,99303.46
2019-05-20T21:57:29.033Z,99303.25
2019-05-20T22:00:00.836Z,99308.23
2019-05-20T22:02:34.452Z,99314.14
2019-05-20T22:05:06.844Z,99314.44
2019-05-20T22:07:38.487Z,99317.57
2019-05-20T22:10:10.253Z,99317.53
2019-05-20T22:12:42.513Z,99305.55
2019-05-20T22:15:14.298Z,99306.03
2019-05-20T22:17:46.524Z,99304.52
2019-05-20T22:20:18.412Z,99307.29
2019-05-20T22:23:09.399Z,99310.09
2019-05-20T22:25:41.357Z,99304.15
2019-05-20T22:28:13.100Z,99311.97
2019-05-20T22:30:45.175Z,99310.59
2019-05-20T22:33:17.135Z,99305.08
2019-05-20T22:35:50.211Z,99305.31
2019-05-20T22:38:22.439Z,99292.26
2019-05-20T22:40:54.666Z,99296.89
2019-05-20T22:43:26.800Z,99293.78
2019-05-20T22:45:59.188Z,99284.20
2019-05-20T22:48:31.171Z,99290.59
2019-05-20T22:51:02.735Z,99287.06
2019-05-20T22:53:34.970Z,99294.41
2019-05-20T22:56:06.974Z,99287.44
2019-05-20T22:58:44.996Z,99295.02
2019-05-20T23:01:16.540Z,99291.29
2019-05-20T23:03:56.001Z,99297.45
2019-05-20T23:06:22.228Z,99297.09
2019-05-20T23:08:54.442Z,99296.53
2019-05-20T23:11:26.299Z,99298.92
2019-05-20T23:13:58.409Z,99293.77
2019-05-20T23:16:30.060Z,99296.34
2019-05-20T23:19:01.804Z,99285.03
2019-05-20T23:21:33.749Z,99288.72
2019-05-20T23:24:05.727Z,99296.12
2019-05-20T23:26:37.585Z,99282.22
2019-05-20T23:29:09.139Z,99283.52
2019-05-20T23:31:40.877Z,99278.03
2019-05-20T23:34:13.384Z,99277.41
2019-05-20T23:36:46.348Z,99280.62
2019-05-20T23:39:17.871Z,99281.95
2019-05-20T23:41:49.686Z,99282.74
2019-05-20T23:44:21.792Z,99281.22
2019-05-20T23:46:53.919Z,99283.06
2019-05-20T23:49:25.993Z,99283.38
2019-05-20T23:51:58.120Z,99295.84
2019-05-20T23:54:30.255Z,99294.70
2019-05-20T23:57:02.564Z,99299.52
2019-05-20T23:59:34.844Z,99295.38
